createdAt,value
2019-02-20T00:00:08.687Z,5.00
2019-02-20T00:02:36.444Z,5.00
2019-02-20T00:05:04.252Z,5.00
2019-02-20T00:07:32.000Z,5.00
2019-02-20T00:10:00.769Z,5.00
2019-02-20T00:12:28.551Z,4.90
2019-02-20T00:14:56.500Z,5.00
2019-02-20T00:17:24.320Z,4.90
2019-02-20T00:19:52.106Z,5.00
2019-02-20T00:22:19.881Z,5.00
2019-02-20T00:24:47.783Z,4.90
2019-02-20T00:27:15.590Z,4.90
2019-02-20T00:29:43.357Z,4.90
2019-02-20T00:32:11.113Z,4.90
2019-02-20T00:34:38.881Z,4.90
2019-02-20T00:37:06.635Z,4.80
2019-02-20T00:39:34.565Z,4.90
2019-02-20T00:42:02.335Z,4.80
2019-02-20T00:44:39.104Z,4.80
2019-02-20T00:47:24.782Z,4.80
2019-02-20T00:49:52.515Z,4.80
2019-02-20T00:52:39.909Z,4.80
2019-02-20T00:55:08.576Z,4.70
2019-02-20T00:57:36.397Z,4.70
2019-02-20T01:00:05.044Z,4.70
2019-02-20T01:02:32.791Z,4.60
2019-02-20T01:05:00.656Z,4.70
2019-02-20T01:07:28.647Z,4.70
2019-02-20T01:09:56.390Z,4.70
2019-02-20T01:12:24.301Z,4.60
2019-02-20T01:14:52.051Z,4.70
2019-02-20T01:17:19.977Z,4.70
2019-02-20T01:19:47.734Z,4.60
2019-02-20T01:22:15.479Z,4.70
2019-02-20T01:24:43.429Z,4.60
2019-02-20T01:27:11.181Z,4.70
2019-02-20T01:29:38.926Z,4.60
2019-02-20T01:32:06.851Z,4.60
2019-02-20T01:34:34.619Z,4.50
2019-02-20T01:37:02.569Z,4.50
2019-02-20T01:39:30.316Z,4.40
2019-02-20T01:41:58.238Z,4.40
2019-02-20T01:44:25.962Z,4.30
2019-02-20T01:46:53.858Z,4.20
2019-02-20T01:49:21.648Z,4.20
2019-02-20T01:51:49.413Z,4.20
2019-02-20T01:54:17.132Z,4.20
2019-02-20T01:56:45.086Z,4.20
2019-02-20T01:59:12.832Z,4.30
2019-02-20T02:01:40.772Z,4.30
2019-02-20T02:04:08.532Z,4.40
2019-02-20T02:06:36.538Z,4.30
2019-02-20T02:09:06.572Z,4.20
2019-02-20T02:11:34.502Z,4.20
2019-02-20T02:14:02.262Z,4.20
2019-02-20T02:16:30.190Z,4.10
2019-02-20T02:18:57.890Z,4.10
2019-02-20T02:21:25.822Z,4.10
2019-02-20T02:23:53.607Z,4.10
2019-02-20T02:26:21.366Z,4.10
2019-02-20T02:28:49.114Z,4.10
2019-02-20T02:31:17.040Z,4.10
2019-02-20T02:33:44.795Z,4.00
2019-02-20T02:36:12.773Z,4.00
2019-02-20T02:38:40.496Z,4.00
2019-02-20T02:41:08.454Z,4.10
2019-02-20T02:43:36.342Z,4.10
2019-02-20T02:46:04.166Z,4.20
2019-02-20T02:48:32.127Z,4.20
2019-02-20T02:50:59.865Z,4.20
2019-02-20T02:53:30.577Z,4.20
2019-02-20T02:55:57.385Z,4.30
2019-02-20T02:58:25.325Z,4.40
2019-02-20T03:00:54.279Z,4.40
2019-02-20T03:03:22.131Z,4.40
2019-02-20T03:05:49.923Z,4.40
2019-02-20T03:08:17.874Z,4.40
2019-02-20T03:10:45.585Z,4.60
2019-02-20T03:13:13.357Z,4.60
2019-02-20T03:15:41.169Z,4.70
2019-02-20T03:18:09.163Z,4.70
2019-02-20T03:20:36.893Z,4.70
2019-02-20T03:23:04.714Z,4.80
2019-02-20T03:25:32.519Z,4.70
2019-02-20T03:28:00.275Z,4.70
2019-02-20T03:30:28.045Z,4.70
2019-02-20T03:32:55.994Z,4.70
2019-02-20T03:35:23.708Z,4.70
2019-02-20T03:37:51.695Z,4.70
2019-02-20T03:40:19.441Z,4.70
2019-02-20T03:42:47.173Z,4.70
2019-02-20T03:45:15.014Z,4.60
2019-02-20T03:47:42.977Z,4.60
2019-02-20T03:50:10.685Z,4.70
2019-02-20T03:52:38.471Z,4.80
2019-02-20T03:55:06.220Z,4.80
2019-02-20T03:57:33.982Z,4.80
2019-02-20T04:00:01.762Z,4.90
2019-02-20T04:02:29.682Z,4.90
2019-02-20T04:04:57.422Z,4.80
2019-02-20T04:07:25.386Z,4.80
2019-02-20T04:09:53.140Z,4.80
2019-02-20T04:12:21.108Z,4.70
2019-02-20T04:14:49.035Z,4.70
2019-02-20T04:17:16.766Z,4.60
2019-02-20T04:19:47.362Z,4.60
2019-02-20T04:22:15.272Z,4.70
2019-02-20T04:24:43.199Z,4.70
2019-02-20T04:27:10.963Z,4.80
2019-02-20T04:29:38.886Z,4.80
2019-02-20T04:32:06.643Z,4.90
2019-02-20T04:34:34.383Z,4.90
2019-02-20T04:37:02.140Z,4.90
2019-02-20T04:39:29.897Z,5.00
2019-02-20T04:41:57.682Z,5.00
2019-02-20T04:44:25.420Z,5.10
2019-02-20T04:46:53.182Z,5.10
2019-02-20T04:49:21.075Z,5.10
2019-02-20T04:51:48.833Z,5.20
2019-02-20T04:54:16.589Z,5.20
2019-02-20T04:56:44.339Z,5.20
2019-02-20T04:59:12.304Z,5.20
2019-02-20T05:01:40.070Z,5.30
2019-02-20T05:04:07.815Z,5.30
2019-02-20T05:06:35.609Z,5.30
2019-02-20T05:09:04.726Z,5.30
2019-02-20T05:11:32.545Z,5.30
2019-02-20T05:14:00.477Z,5.30
2019-02-20T05:16:30.246Z,5.40
2019-02-20T05:18:58.188Z,5.40
2019-02-20T05:21:25.947Z,5.40
2019-02-20T05:23:53.881Z,5.50
2019-02-20T05:26:21.650Z,5.50
2019-02-20T05:28:49.436Z,5.50
2019-02-20T05:31:17.194Z,5.50
2019-02-20T05:33:46.164Z,5.50
2019-02-20T05:36:15.654Z,5.60
2019-02-20T05:38:43.613Z,5.60
2019-02-20T05:41:11.406Z,5.60
2019-02-20T05:43:39.347Z,5.60
2019-02-20T05:46:07.215Z,5.60
2019-02-20T05:48:35.278Z,5.60
2019-02-20T05:51:03.041Z,5.60
2019-02-20T05:53:31.014Z,5.60
2019-02-20T05:55:58.968Z,5.50
2019-02-20T05:58:26.926Z,5.50
2019-02-20T06:00:54.994Z,5.50
2019-02-20T06:03:22.974Z,5.50
2019-02-20T06:05:50.754Z,5.50
2019-02-20T06:08:18.622Z,5.50
2019-02-20T06:10:46.364Z,5.50
2019-02-20T06:13:14.130Z,5.50
2019-02-20T06:15:43.146Z,5.50
2019-02-20T06:18:11.079Z,5.60
2019-02-20T06:20:38.870Z,5.60
2019-02-20T06:23:08.936Z,5.60
2019-02-20T06:25:36.683Z,5.60
2019-02-20T06:28:04.433Z,5.60
2019-02-20T06:30:32.196Z,5.60
2019-02-20T06:33:00.025Z,5.60
2019-02-20T06:35:27.814Z,5.60
2019-02-20T06:37:55.595Z,5.60
2019-02-20T06:40:23.407Z,5.70
2019-02-20T06:42:51.196Z,5.70
2019-02-20T06:45:19.019Z,5.80
2019-02-20T06:47:48.140Z,5.70
2019-02-20T06:50:15.965Z,5.70
2019-02-20T06:52:43.841Z,5.60
2019-02-20T06:55:11.647Z,5.60
2019-02-20T06:57:39.431Z,5.60
2019-02-20T07:00:09.217Z,5.60
2019-02-20T07:02:37.011Z,5.60
2019-02-20T07:05:33.909Z,5.70
2019-02-20T07:09:03.957Z,5.70
2019-02-20T07:12:22.437Z,5.80
2019-02-20T07:16:08.094Z,5.80
2019-02-20T07:19:38.712Z,5.80
2019-02-20T07:22:41.903Z,5.90
2019-02-20T07:26:10.413Z,5.90
2019-02-20T07:29:25.215Z,6.00
2019-02-20T07:31:53.525Z,6.20
2019-02-20T07:34:21.333Z,6.30
2019-02-20T07:36:49.276Z,6.40
2019-02-20T07:39:17.105Z,6.60
2019-02-20T07:41:44.924Z,6.70
2019-02-20T07:44:12.696Z,6.80
2019-02-20T07:46:40.612Z,6.80
2019-02-20T07:49:08.386Z,6.90
2019-02-20T07:51:36.332Z,6.90
2019-02-20T07:54:04.103Z,7.00
2019-02-20T07:56:31.876Z,7.10
2019-02-20T07:58:59.640Z,7.30
2019-02-20T08:01:27.402Z,7.40
2019-02-20T08:03:55.149Z,7.50
2019-02-20T08:06:22.900Z,7.50
2019-02-20T08:08:50.713Z,7.60
2019-02-20T08:11:18.864Z,7.50
2019-02-20T08:13:46.627Z,7.40
2019-02-20T08:16:14.454Z,7.50
2019-02-20T08:18:42.208Z,7.50
2019-02-20T08:21:10.091Z,7.50
2019-02-20T08:23:38.044Z,7.60
2019-02-20T08:26:05.795Z,7.60
2019-02-20T08:28:33.542Z,7.70
2019-02-20T08:31:02.070Z,7.70
2019-02-20T08:33:29.875Z,7.80
2019-02-20T08:35:57.651Z,7.90
2019-02-20T08:38:25.404Z,8.10
2019-02-20T08:40:53.168Z,8.40
2019-02-20T08:43:20.991Z,8.60
2019-02-20T08:45:48.786Z,8.70
2019-02-20T08:48:16.565Z,8.80
2019-02-20T08:50:44.334Z,8.90
2019-02-20T08:53:12.125Z,8.90
2019-02-20T08:55:39.897Z,8.90
2019-02-20T08:58:07.853Z,8.90
2019-02-20T09:00:35.759Z,9.00
2019-02-20T09:03:03.706Z,9.10
2019-02-20T09:05:31.487Z,9.20
2019-02-20T09:07:59.442Z,9.20
2019-02-20T09:10:27.319Z,9.30
2019-02-20T09:12:55.223Z,9.40
2019-02-20T09:15:23.037Z,9.50
2019-02-20T09:17:50.905Z,9.50
2019-02-20T09:20:18.723Z,9.60
2019-02-20T09:22:46.669Z,9.70
2019-02-20T09:25:19.871Z,9.90
2019-02-20T09:27:44.391Z,10.00
2019-02-20T09:30:12.791Z,10.10
2019-02-20T09:32:40.741Z,10.20
2019-02-20T09:35:08.998Z,10.10
2019-02-20T09:37:36.909Z,10.20
2019-02-20T09:40:07.537Z,10.30
2019-02-20T09:42:37.546Z,10.40
2019-02-20T09:45:05.581Z,10.20
2019-02-20T09:47:33.354Z,10.10
2019-02-20T09:50:01.118Z,10.10
2019-02-20T09:52:28.873Z,10.10
2019-02-20T09:54:56.626Z,10.20
2019-02-20T09:57:24.434Z,10.30
2019-02-20T09:59:52.167Z,10.50
2019-02-20T10:02:19.970Z,10.80
2019-02-20T10:04:48.071Z,10.80
2019-02-20T10:07:15.845Z,10.80
2019-02-20T10:09:43.666Z,10.90
2019-02-20T10:12:11.504Z,11.00
2019-02-20T10:14:40.350Z,11.10
2019-02-20T10:17:08.310Z,11.20
2019-02-20T10:19:36.102Z,11.30
2019-02-20T10:22:04.140Z,11.20
2019-02-20T10:24:31.892Z,11.30
2019-02-20T10:27:00.848Z,11.40
2019-02-20T10:29:29.322Z,11.40
2019-02-20T10:31:57.136Z,11.60
2019-02-20T10:34:24.850Z,11.50
2019-02-20T10:36:52.799Z,11.40
2019-02-20T10:39:20.441Z,11.40
2019-02-20T10:41:48.312Z,11.40
2019-02-20T10:44:16.053Z,11.50
2019-02-20T10:46:44.164Z,11.70
2019-02-20T10:49:11.917Z,11.70
2019-02-20T10:51:39.716Z,11.70
2019-02-20T10:54:07.492Z,11.80
2019-02-20T10:56:36.584Z,11.90
2019-02-20T10:59:05.207Z,12.00
2019-02-20T11:01:33.007Z,12.10
2019-02-20T11:04:00.813Z,12.10
2019-02-20T11:06:28.615Z,12.10
2019-02-20T11:08:56.396Z,12.20
2019-02-20T11:11:24.234Z,12.30
2019-02-20T11:13:53.311Z,12.10
2019-02-20T11:16:21.065Z,12.20
2019-02-20T11:18:48.892Z,12.50
2019-02-20T11:21:16.645Z,12.70
2019-02-20T11:23:44.413Z,12.70
2019-02-20T11:26:17.930Z,13.00
2019-02-20T11:28:42.185Z,13.20
2019-02-20T11:31:10.195Z,13.20
2019-02-20T11:33:38.358Z,13.20
2019-02-20T11:36:06.107Z,13.50
2019-02-20T11:38:33.885Z,13.60
2019-02-20T11:41:02.596Z,13.60
2019-02-20T11:43:30.370Z,13.50
2019-02-20T11:45:58.167Z,14.00
2019-02-20T11:48:26.250Z,14.60
2019-02-20T11:50:54.263Z,15.80
2019-02-20T11:53:21.994Z,16.90
2019-02-20T11:55:49.785Z,17.90
2019-02-20T11:58:17.606Z,18.40
2019-02-20T12:00:45.416Z,18.80
2019-02-20T12:03:13.262Z,19.40
2019-02-20T12:05:41.068Z,20.00
2019-02-20T12:08:08.978Z,20.80
2019-02-20T12:10:37.002Z,20.80
2019-02-20T12:13:04.728Z,20.60
2019-02-20T12:15:32.582Z,21.00
2019-02-20T12:18:00.428Z,21.20
2019-02-20T12:20:28.240Z,21.00
2019-02-20T12:22:56.005Z,20.80
2019-02-20T12:25:23.764Z,20.30
2019-02-20T12:27:51.577Z,20.20
2019-02-20T12:30:19.324Z,19.60
2019-02-20T12:32:47.104Z,19.10
2019-02-20T12:35:14.923Z,18.50
2019-02-20T12:37:42.835Z,17.50
2019-02-20T12:40:10.831Z,16.60
2019-02-20T12:42:38.639Z,16.00
2019-02-20T12:45:06.539Z,15.50
2019-02-20T12:47:34.344Z,15.00
2019-02-20T12:50:02.342Z,14.70
2019-02-20T12:52:30.196Z,14.50
2019-02-20T12:54:58.022Z,14.40
2019-02-20T12:57:25.908Z,14.40
2019-02-20T12:59:53.683Z,14.50
2019-02-20T13:02:21.507Z,14.70
2019-02-20T13:04:49.431Z,14.70
2019-02-20T13:07:17.749Z,14.40
2019-02-20T13:09:45.726Z,14.20
2019-02-20T13:12:13.538Z,14.10
2019-02-20T13:14:41.296Z,14.10
2019-02-20T13:17:09.350Z,14.10
2019-02-20T13:19:37.160Z,14.00
2019-02-20T13:22:04.995Z,13.90
2019-02-20T13:24:32.769Z,13.70
2019-02-20T13:27:07.380Z,13.80
2019-02-20T13:29:30.295Z,13.90
2019-02-20T13:31:58.099Z,13.70
2019-02-20T13:34:25.969Z,13.80
2019-02-20T13:36:53.894Z,13.80
2019-02-20T13:39:21.759Z,13.90
2019-02-20T13:41:49.610Z,13.80
2019-02-20T13:44:17.402Z,13.60
2019-02-20T13:46:45.190Z,13.60
2019-02-20T13:49:13.367Z,13.70
2019-02-20T13:51:41.537Z,13.80
2019-02-20T13:54:09.332Z,13.90
2019-02-20T13:56:37.137Z,14.00
2019-02-20T13:59:05.023Z,14.00
2019-02-20T14:01:32.847Z,14.20
2019-02-20T14:04:00.649Z,14.30
2019-02-20T14:06:28.860Z,14.20
2019-02-20T14:08:56.622Z,14.60
2019-02-20T14:11:24.395Z,15.60
2019-02-20T14:13:52.158Z,16.20
2019-02-20T14:16:19.902Z,16.90
2019-02-20T14:18:47.735Z,16.40
2019-02-20T14:21:15.516Z,16.10
2019-02-20T14:23:43.250Z,15.90
2019-02-20T14:26:10.999Z,16.30
2019-02-20T14:28:38.791Z,16.60
2019-02-20T14:31:07.110Z,16.40
2019-02-20T14:33:34.945Z,17.10
2019-02-20T14:36:02.699Z,17.30
2019-02-20T14:38:31.968Z,16.80
2019-02-20T14:40:59.871Z,16.00
2019-02-20T14:43:27.672Z,15.40
2019-02-20T14:45:55.616Z,15.00
2019-02-20T14:48:23.466Z,15.20
2019-02-20T14:50:51.336Z,14.90
2019-02-20T14:53:19.097Z,15.10
2019-02-20T14:55:46.839Z,15.20
2019-02-20T14:58:14.642Z,15.10
2019-02-20T15:00:42.587Z,14.60
2019-02-20T15:03:10.382Z,14.30
2019-02-20T15:05:38.148Z,13.90
2019-02-20T15:08:06.335Z,13.60
2019-02-20T15:10:34.133Z,13.40
2019-02-20T15:13:01.916Z,13.00
2019-02-20T15:15:29.727Z,12.80
2019-02-20T15:17:57.959Z,12.60
2019-02-20T15:20:25.696Z,12.40
2019-02-20T15:22:53.464Z,12.20
2019-02-20T15:25:21.252Z,12.00
2019-02-20T15:27:49.059Z,11.90
2019-02-20T15:30:16.805Z,11.80
2019-02-20T15:32:44.603Z,11.60
2019-02-20T15:35:12.767Z,11.60
2019-02-20T15:37:40.587Z,11.30
2019-02-20T15:40:08.658Z,11.10
2019-02-20T15:42:36.443Z,11.10
2019-02-20T15:45:04.920Z,11.00
2019-02-20T15:47:32.734Z,10.90
2019-02-20T15:50:00.488Z,10.80
2019-02-20T15:52:28.470Z,10.80
2019-02-20T15:54:56.220Z,10.70
2019-02-20T15:57:24.003Z,10.70
2019-02-20T15:59:51.756Z,10.60
2019-02-20T16:02:19.768Z,10.60
2019-02-20T16:04:47.549Z,10.50
2019-02-20T16:07:15.527Z,10.50
2019-02-20T16:09:43.274Z,10.40
2019-02-20T16:12:11.386Z,10.30
2019-02-20T16:14:39.158Z,10.20
2019-02-20T16:17:10.094Z,10.10
2019-02-20T16:19:37.840Z,9.90
2019-02-20T16:22:05.668Z,9.90
2019-02-20T16:24:33.601Z,9.80
2019-02-20T16:27:01.363Z,9.70
2019-02-20T16:29:29.593Z,9.60
2019-02-20T16:31:57.419Z,9.60
2019-02-20T16:34:25.196Z,9.50
2019-02-20T16:36:52.965Z,9.40
2019-02-20T16:39:20.971Z,9.30
2019-02-20T16:41:48.731Z,9.30
2019-02-20T16:44:16.518Z,9.20
2019-02-20T16:46:44.678Z,9.20
2019-02-20T16:49:12.466Z,9.20
2019-02-20T16:51:40.209Z,9.10
2019-02-20T16:54:08.145Z,9.10
2019-02-20T16:56:35.899Z,9.10
2019-02-20T16:59:05.180Z,9.10
2019-02-20T17:01:33.315Z,9.10
2019-02-20T17:04:01.395Z,9.10
2019-02-20T17:06:29.192Z,9.10
2019-02-20T17:08:56.941Z,9.10
2019-02-20T17:11:24.711Z,9.10
2019-02-20T17:13:52.485Z,9.10
2019-02-20T17:16:20.315Z,9.20
2019-02-20T17:18:48.148Z,9.20
2019-02-20T17:21:16.299Z,9.20
2019-02-20T17:23:44.051Z,9.20
2019-02-20T17:26:11.877Z,9.30
2019-02-20T17:28:39.653Z,9.30
2019-02-20T17:31:07.454Z,9.30
2019-02-20T17:33:35.273Z,9.30
2019-02-20T17:36:03.261Z,9.40
2019-02-20T17:38:31.430Z,9.40
2019-02-20T17:40:59.231Z,9.40
2019-02-20T17:43:26.983Z,9.40
2019-02-20T17:45:54.879Z,9.30
2019-02-20T17:48:22.650Z,9.30
2019-02-20T17:50:50.426Z,9.20
2019-02-20T17:53:18.192Z,9.20
2019-02-20T17:55:46.375Z,9.20
2019-02-20T17:58:15.412Z,9.20
2019-02-20T18:00:43.448Z,9.20
2019-02-20T18:03:11.223Z,9.20
2019-02-20T18:05:38.992Z,9.10
2019-02-20T18:08:06.872Z,9.20
2019-02-20T18:10:34.628Z,9.10
2019-02-20T18:13:02.423Z,9.10
2019-02-20T18:15:30.145Z,9.10
2019-02-20T18:17:57.920Z,9.10
2019-02-20T18:20:25.684Z,9.20
2019-02-20T18:22:53.510Z,9.20
2019-02-20T18:25:21.266Z,9.20
2019-02-20T18:27:49.044Z,9.20
2019-02-20T18:30:16.845Z,9.20
2019-02-20T18:32:44.580Z,9.20
2019-02-20T18:35:12.433Z,9.20
2019-02-20T18:37:40.161Z,9.20
2019-02-20T18:40:08.850Z,9.20
2019-02-20T18:42:36.662Z,9.20
2019-02-20T18:45:06.065Z,9.10
2019-02-20T18:47:33.844Z,9.20
2019-02-20T18:50:01.706Z,9.10
2019-02-20T18:52:30.638Z,9.10
2019-02-20T18:55:05.553Z,9.10
2019-02-20T18:57:28.273Z,9.10
2019-02-20T18:59:56.147Z,9.10
2019-02-20T19:02:23.887Z,9.10
2019-02-20T19:04:51.693Z,9.00
2019-02-20T19:07:19.564Z,9.00
2019-02-20T19:09:48.748Z,9.00
2019-02-20T19:13:19.406Z,9.00
2019-02-20T19:16:53.468Z,9.00
2019-02-20T19:19:55.789Z,9.00
2019-02-20T19:23:13.672Z,9.00
2019-02-20T19:26:24.168Z,9.00
2019-02-20T19:29:29.669Z,9.00
2019-02-20T19:32:44.229Z,9.00
2019-02-20T19:36:08.294Z,9.10
2019-02-20T19:38:52.567Z,9.00
2019-02-20T19:42:27.077Z,9.00
2019-02-20T19:46:04.343Z,9.00
2019-02-20T19:48:55.069Z,9.00
2019-02-20T19:52:09.307Z,9.00
2019-02-20T19:55:20.324Z,9.00
2019-02-20T19:58:36.192Z,9.00
2019-02-20T20:02:13.338Z,9.00
2019-02-20T20:05:47.864Z,9.00
2019-02-20T20:09:19.339Z,8.90
2019-02-20T20:12:23.544Z,8.90
2019-02-20T20:15:59.741Z,8.90
2019-02-20T20:19:38.195Z,8.90
2019-02-20T20:23:10.127Z,9.00
2019-02-20T20:26:39.785Z,8.90
2019-02-20T20:30:21.040Z,8.80
2019-02-20T20:33:50.107Z,8.80
2019-02-20T20:37:26.014Z,8.80
2019-02-20T20:40:28.313Z,8.80
2019-02-20T20:43:47.197Z,8.70
2019-02-20T20:47:21.056Z,8.70
2019-02-20T20:50:00.467Z,8.60
2019-02-20T20:53:24.377Z,8.60
2019-02-20T20:57:04.599Z,8.60
2019-02-20T21:00:35.000Z,8.60
2019-02-20T21:03:08.635Z,8.50
2019-02-20T21:06:09.344Z,8.50
2019-02-20T21:09:00.479Z,8.50
2019-02-20T21:12:32.969Z,8.50
2019-02-20T21:15:54.949Z,8.40
2019-02-20T21:19:05.415Z,8.40
2019-02-20T21:22:46.421Z,8.30
2019-02-20T21:26:07.795Z,8.30
2019-02-20T21:29:15.938Z,8.30
2019-02-20T21:32:24.167Z,8.40
2019-02-20T21:35:29.339Z,8.30
2019-02-20T21:38:17.519Z,8.40
2019-02-20T21:41:19.497Z,8.30
2019-02-20T21:44:31.220Z,8.30
2019-02-20T21:47:22.939Z,8.20
2019-02-20T21:50:41.135Z,8.10
2019-02-20T21:54:10.822Z,8.00
2019-02-20T21:57:10.808Z,7.90
2019-02-20T22:00:48.935Z,7.80
2019-02-20T22:04:29.446Z,7.70
2019-02-20T22:07:50.502Z,7.60
2019-02-20T22:11:27.190Z,7.60
2019-02-20T22:14:50.103Z,7.50
2019-02-20T22:18:37.238Z,7.50
2019-02-20T22:22:29.701Z,7.40
2019-02-20T22:25:41.256Z,7.40
2019-02-20T22:28:59.224Z,7.30
2019-02-20T22:32:38.916Z,7.30
2019-02-20T22:35:33.494Z,7.30
2019-02-20T22:38:42.192Z,7.30
2019-02-20T22:42:10.456Z,7.30
2019-02-20T22:45:53.078Z,7.20
2019-02-20T22:48:45.092Z,7.10
2019-02-20T22:51:52.986Z,7.10
2019-02-20T22:55:23.188Z,7.00
2019-02-20T22:58:41.239Z,7.00
2019-02-20T23:01:52.975Z,7.00
2019-02-20T23:04:57.953Z,7.00
2019-02-20T23:07:54.966Z,7.00
2019-02-20T23:11:06.665Z,7.10
2019-02-20T23:14:39.651Z,7.00
2019-02-20T23:17:07.504Z,7.00
2019-02-20T23:19:35.285Z,7.10
2019-02-20T23:22:03.115Z,7.10
2019-02-20T23:24:30.866Z,7.00
2019-02-20T23:26:58.614Z,7.10
2019-02-20T23:29:26.332Z,7.10
2019-02-20T23:31:54.092Z,7.10
2019-02-20T23:34:22.025Z,7.00
2019-02-20T23:36:49.775Z,7.00
2019-02-20T23:39:17.583Z,7.00
2019-02-20T23:41:45.338Z,7.00
2019-02-20T23:44:13.122Z,6.90
2019-02-20T23:46:40.891Z,6.90
2019-02-20T23:49:08.675Z,6.80
2019-02-20T23:51:36.593Z,6.80
2019-02-20T23:54:04.536Z,6.80
2019-02-20T23:56:32.245Z,6.80
2019-02-20T23:59:00.028Z,6.70
